Time,TemperatureF,DewpointF,PressureIn,WindDirection,WindDirectionDegrees,WindSpeedMPH,WindSpeedGustMPH,Humidity,HourlyPrecipIn,Conditions,Clouds,dailyrainin,SolarRadiationWatts/m^2,SoftwareType,DateUTC
2013-02-25 00:01:00,29.0,24.0,-100.00,ENE,64,1.0,10.0,80,0.00,,,0.00,0.000000,,2013-02-25 05:01:00,
2013-02-25 00:32:00,27.0,23.0,-100.00,ENE,58,2.0,3.0,83,0.00,,,0.00,0.000000,,2013-02-25 05:32:00,
2013-02-25 00:42:00,27.0,23.0,-100.00,ENE,58,2.0,3.0,83,0.00,,,0.00,0.000000,,2013-02-25 05:42:00,
2013-02-25 00:52:00,27.0,23.0,-100.00,ENE,58,2.0,3.0,83,0.00,,,0.00,0.000000,,2013-02-25 05:52:00,
2013-02-25 01:02:00,27.0,23.0,-100.00,ENE,58,2.0,3.0,83,0.00,,,0.00,0.000000,,2013-02-25 06:02:00,
2013-02-25 01:32:00,27.0,24.0,-100.00,NNE,23,1.0,3.0,88,0.00,,,0.00,0.000000,,2013-02-25 06:32:00,
2013-02-25 01:42:00,27.0,24.0,-100.00,NNE,23,1.0,3.0,88,0.00,,,0.00,0.000000,,2013-02-25 06:42:00,
2013-02-25 01:52:00,27.0,24.0,-100.00,NNE,23,1.0,3.0,88,0.00,,,0.00,0.000000,,2013-02-25 06:52:00,
2013-02-25 02:01:00,27.0,24.0,-100.00,NNE,23,1.0,3.0,88,0.00,,,0.00,0.000000,,2013-02-25 07:01:00,
2013-02-25 02:32:00,27.0,24.0,-100.00,ENE,77,1.0,2.0,89,0.00,,,0.00,0.000000,,2013-02-25 07:32:00,
2013-02-25 02:42:00,27.0,24.0,-100.00,ENE,77,1.0,2.0,89,0.00,,,0.00,0.000000,,2013-02-25 07:42:00,
2013-02-25 02:52:00,27.0,24.0,-100.00,ENE,77,1.0,2.0,89,0.00,,,0.00,0.000000,,2013-02-25 07:52:00,
2013-02-25 03:01:00,27.0,24.0,-100.00,ENE,77,1.0,2.0,89,0.00,,,0.00,0.000000,,2013-02-25 08:01:00,
2013-02-25 03:32:00,27.0,24.0,-100.00,NE,38,1.0,3.0,90,0.00,,,0.00,0.000000,,2013-02-25 08:32:00,
2013-02-25 03:42:00,27.0,24.0,-100.00,NE,38,1.0,3.0,90,0.00,,,0.00,0.000000,,2013-02-25 08:42:00,
2013-02-25 03:52:00,27.0,24.0,-100.00,NE,38,1.0,3.0,90,0.00,,,0.00,0.000000,,2013-02-25 08:52:00,
2013-02-25 04:02:00,27.0,24.0,-100.00,NE,38,1.0,3.0,90,0.00,,,0.00,0.000000,,2013-02-25 09:02:00,
2013-02-25 04:32:00,28.0,25.0,-100.00,ENE,75,1.0,3.0,90,0.00,,,0.00,0.000000,,2013-02-25 09:32:00,
2013-02-25 04:42:00,28.0,25.0,-100.00,ENE,75,1.0,3.0,90,0.00,,,0.00,0.000000,,2013-02-25 09:42:00,
2013-02-25 04:52:00,28.0,25.0,-100.00,ENE,75,1.0,3.0,90,0.00,,,0.00,0.000000,,2013-02-25 09:52:00,
2013-02-25 05:01:00,28.0,25.0,-100.00,ENE,75,1.0,3.0,90,0.00,,,0.00,0.000000,,2013-02-25 10:01:00,
2013-02-25 05:21:00,28.0,26.0,-100.00,East,79,1.0,2.0,91,0.00,,,0.00,0.000000,,2013-02-25 10:21:00,
2013-02-25 05:32:00,28.0,26.0,-100.00,East,79,1.0,2.0,91,0.00,,,0.00,0.000000,,2013-02-25 10:32:00,
2013-02-25 05:42:00,28.0,26.0,-100.00,East,79,1.0,2.0,91,0.00,,,0.00,0.000000,,2013-02-25 10:42:00,
2013-02-25 05:52:00,28.0,26.0,-100.00,East,79,1.0,2.0,91,0.00,,,0.00,0.000000,,2013-02-25 10:52:00,
2013-02-25 06:01:00,28.0,26.0,-100.00,East,79,1.0,2.0,91,0.00,,,0.00,0.000000,,2013-02-25 11:01:00,
2013-02-25 06:22:00,28.0,26.0,-100.00,NNW,343,1.0,3.0,91,0.00,,,0.00,0.000000,,2013-02-25 11:22:00,
2013-02-25 06:32:00,28.0,26.0,-100.00,NNW,343,1.0,3.0,91,0.00,,,0.00,0.000000,,2013-02-25 11:32:00,
2013-02-25 06:42:00,28.0,26.0,-100.00,NNW,343,1.0,3.0,91,0.00,,,0.00,0.000000,,2013-02-25 11:42:00,
2013-02-25 06:52:00,28.0,26.0,-100.00,NNW,343,1.0,3.0,91,0.00,,,0.00,0.000000,,2013-02-25 11:52:00,
2013-02-25 07:02:00,28.0,26.0,-100.00,NNW,343,1.0,3.0,91,0.00,,,0.00,0.000000,,2013-02-25 12:02:00,
2013-02-25 07:22:00,28.0,26.0,-100.00,ENE,65,0.0,3.0,91,0.00,,,0.00,0.000000,,2013-02-25 12:22:00,
2013-02-25 07:32:00,28.0,26.0,-100.00,ENE,65,0.0,3.0,91,0.00,,,0.00,0.000000,,2013-02-25 12:32:00,
2013-02-25 07:42:00,28.0,26.0,-100.00,ENE,65,0.0,3.0,91,0.00,,,0.00,0.000000,,2013-02-25 12:42:00,
2013-02-25 07:56:00,28.0,26.0,-100.00,ENE,65,0.0,3.0,91,0.00,,,0.00,0.000000,,2013-02-25 12:56:00,
2013-02-25 08:02:00,28.0,26.0,-100.00,ENE,65,0.0,3.0,91,0.00,,,0.00,0.000000,,2013-02-25 13:02:00,
2013-02-25 08:23:00,29.0,27.0,-100.00,ENE,57,1.0,2.0,92,0.00,,,0.00,16.000000,,2013-02-25 13:23:00,
2013-02-25 08:32:00,29.0,27.0,-100.00,ENE,57,1.0,2.0,92,0.00,,,0.00,16.000000,,2013-02-25 13:32:00,
2013-02-25 08:42:00,29.0,27.0,-100.00,ENE,57,1.0,2.0,92,0.00,,,0.00,16.000000,,2013-02-25 13:42:00,
2013-02-25 08:52:00,29.0,27.0,-100.00,ENE,57,1.0,2.0,92,0.00,,,0.00,16.000000,,2013-02-25 13:52:00,
2013-02-25 09:03:00,29.0,27.0,-100.00,ENE,57,1.0,2.0,92,0.00,,,0.00,16.000000,,2013-02-25 14:03:00,
2013-02-25 09:32:00,33.0,30.0,-100.00,SW,219,1.0,2.0,87,0.00,,,0.00,81.000000,,2013-02-25 14:32:00,
2013-02-25 09:42:00,33.0,30.0,-100.00,SW,219,1.0,2.0,87,0.00,,,0.00,81.000000,,2013-02-25 14:42:00,
2013-02-25 09:52:00,33.0,30.0,-100.00,SW,219,1.0,2.0,87,0.00,,,0.00,81.000000,,2013-02-25 14:52:00,
2013-02-25 10:03:00,33.0,30.0,-100.00,SW,219,1.0,2.0,87,0.00,,,0.00,81.000000,,2013-02-25 15:03:00,
2013-02-25 10:22:00,35.0,22.0,-100.00,South,172,4.0,9.0,58,0.00,,,0.00,129.000000,,2013-02-25 15:22:00,
2013-02-25 10:32:00,35.0,22.0,-100.00,South,172,4.0,9.0,58,0.00,,,0.00,129.000000,,2013-02-25 15:32:00,
2013-02-25 10:42:00,35.0,22.0,-100.00,South,172,4.0,9.0,58,0.00,,,0.00,129.000000,,2013-02-25 15:42:00,
2013-02-25 10:52:00,35.0,22.0,-100.00,South,172,4.0,9.0,58,0.00,,,0.00,129.000000,,2013-02-25 15:52:00,
2013-02-25 11:02:00,35.0,22.0,-100.00,South,172,4.0,9.0,58,0.00,,,0.00,129.000000,,2013-02-25 16:02:00,
2013-02-25 11:32:00,37.0,21.0,-100.00,East,81,3.0,6.0,53,0.00,,,0.00,182.000000,,2013-02-25 16:32:00,
2013-02-25 11:42:00,37.0,21.0,-100.00,East,81,3.0,6.0,53,0.00,,,0.00,182.000000,,2013-02-25 16:42:00,
2013-02-25 11:52:00,37.0,21.0,-100.00,East,81,3.0,6.0,53,0.00,,,0.00,182.000000,,2013-02-25 16:52:00,
2013-02-25 12:02:00,37.0,21.0,-100.00,East,81,3.0,6.0,53,0.00,,,0.00,182.000000,,2013-02-25 17:02:00,
2013-02-25 12:32:00,39.0,19.0,-100.00,ENE,78,3.0,6.0,45,0.00,,,0.00,262.000000,,2013-02-25 17:32:00,
2013-02-25 12:42:00,39.0,19.0,-100.00,ENE,78,3.0,6.0,45,0.00,,,0.00,262.000000,,2013-02-25 17:42:00,
2013-02-25 12:52:00,39.0,19.0,-100.00,ENE,78,3.0,6.0,45,0.00,,,0.00,262.000000,,2013-02-25 17:52:00,
2013-02-25 13:02:00,39.0,19.0,-100.00,ENE,78,3.0,6.0,45,0.00,,,0.00,262.000000,,2013-02-25 18:02:00,
2013-02-25 13:33:00,41.0,20.0,-100.00,SW,222,3.0,7.0,43,0.00,,,0.00,247.000000,,2013-02-25 18:33:00,
2013-02-25 13:42:00,41.0,20.0,-100.00,SW,222,3.0,7.0,43,0.00,,,0.00,247.000000,,2013-02-25 18:42:00,
2013-02-25 13:52:00,41.0,20.0,-100.00,SW,222,3.0,7.0,43,0.00,,,0.00,247.000000,,2013-02-25 18:52:00,
2013-02-25 14:01:00,41.0,20.0,-100.00,SW,222,3.0,7.0,43,0.00,,,0.00,247.000000,,2013-02-25 19:01:00,
2013-02-25 14:32:00,41.0,19.0,-100.00,SSW,205,4.0,8.0,40,0.00,,,0.00,246.000000,,2013-02-25 19:32:00,
2013-02-25 14:42:00,41.0,19.0,-100.00,SSW,205,4.0,8.0,40,0.00,,,0.00,246.000000,,2013-02-25 19:42:00,
2013-02-25 14:52:00,41.0,19.0,-100.00,SSW,205,4.0,8.0,40,0.00,,,0.00,246.000000,,2013-02-25 19:52:00,
2013-02-25 15:01:00,41.0,19.0,-100.00,SSW,205,4.0,8.0,40,0.00,,,0.00,246.000000,,2013-02-25 20:01:00,
2013-02-25 15:22:00,44.0,21.0,-100.00,South,187,3.0,6.0,39,0.00,,,0.00,254.000000,,2013-02-25 20:22:00,
2013-02-25 15:32:00,44.0,21.0,-100.00,South,187,3.0,6.0,39,0.00,,,0.00,254.000000,,2013-02-25 20:32:00,
2013-02-25 15:42:00,44.0,21.0,-100.00,South,187,3.0,6.0,39,0.00,,,0.00,254.000000,,2013-02-25 20:42:00,
2013-02-25 15:52:00,44.0,21.0,-100.00,South,187,3.0,6.0,39,0.00,,,0.00,254.000000,,2013-02-25 20:52:00,
2013-02-25 16:02:00,44.0,21.0,-100.00,South,187,3.0,6.0,39,0.00,,,0.00,254.000000,,2013-02-25 21:02:00,
2013-02-25 16:32:00,44.0,22.0,-100.00,South,188,3.0,8.0,42,0.00,,,0.00,298.000000,,2013-02-25 21:32:00,
2013-02-25 16:42:00,44.0,22.0,-100.00,South,188,3.0,8.0,42,0.00,,,0.00,298.000000,,2013-02-25 21:42:00,
2013-02-25 16:52:00,44.0,22.0,-100.00,South,188,3.0,8.0,42,0.00,,,0.00,298.000000,,2013-02-25 21:52:00,
2013-02-25 17:01:00,44.0,22.0,-100.00,South,188,3.0,8.0,42,0.00,,,0.00,298.000000,,2013-02-25 22:01:00,
2013-02-25 17:32:00,44.0,23.0,-100.00,South,184,3.0,7.0,44,0.00,,,0.00,158.000000,,2013-02-25 22:32:00,
2013-02-25 17:42:00,44.0,23.0,-100.00,South,184,3.0,7.0,44,0.00,,,0.00,158.000000,,2013-02-25 22:42:00,
2013-02-25 17:52:00,44.0,23.0,-100.00,South,184,3.0,7.0,44,0.00,,,0.00,158.000000,,2013-02-25 22:52:00,
2013-02-25 18:01:00,44.0,23.0,-100.00,South,184,3.0,7.0,44,0.00,,,0.00,158.000000,,2013-02-25 23:01:00,
2013-02-25 18:32:00,42.0,23.0,-100.00,SSW,212,3.0,6.0,47,0.00,,,0.00,40.000000,,2013-02-25 23:32:00,
2013-02-25 18:42:00,42.0,23.0,-100.00,SSW,212,3.0,6.0,47,0.00,,,0.00,40.000000,,2013-02-25 23:42:00,
2013-02-25 18:52:00,42.0,23.0,-100.00,SSW,212,3.0,6.0,47,0.00,,,0.00,40.000000,,2013-02-25 23:52:00,
2013-02-25 19:02:00,42.0,23.0,-100.00,SSW,212,3.0,6.0,47,0.00,,,0.00,40.000000,,2013-02-26 00:02:00,
2013-02-25 19:22:00,39.0,23.0,-100.00,South,191,2.0,6.0,52,0.00,,,0.00,2.000000,,2013-02-26 00:22:00,
2013-02-25 19:32:00,39.0,23.0,-100.00,South,191,2.0,6.0,52,0.00,,,0.00,2.000000,,2013-02-26 00:32:00,
2013-02-25 19:42:00,39.0,23.0,-100.00,South,191,2.0,6.0,52,0.00,,,0.00,2.000000,,2013-02-26 00:42:00,
2013-02-25 19:52:00,39.0,23.0,-100.00,South,191,2.0,6.0,52,0.00,,,0.00,2.000000,,2013-02-26 00:52:00,
2013-02-25 20:02:00,39.0,23.0,-100.00,South,191,2.0,6.0,52,0.00,,,0.00,2.000000,,2013-02-26 01:02:00,
2013-02-25 20:32:00,37.0,24.0,-100.00,SSW,200,3.0,8.0,58,0.00,,,0.00,0.000000,,2013-02-26 01:32:00,
2013-02-25 20:42:00,37.0,24.0,-100.00,SSW,200,3.0,8.0,58,0.00,,,0.00,0.000000,,2013-02-26 01:42:00,
2013-02-25 20:52:00,37.0,24.0,-100.00,SSW,200,3.0,8.0,58,0.00,,,0.00,0.000000,,2013-02-26 01:52:00,
2013-02-25 21:01:00,37.0,24.0,-100.00,SSW,200,3.0,8.0,58,0.00,,,0.00,0.000000,,2013-02-26 02:01:00,
2013-02-25 21:32:00,36.0,24.0,-100.00,WSW,247,3.0,6.0,62,0.00,,,0.00,0.000000,,2013-02-26 02:32:00,
2013-02-25 21:42:00,36.0,24.0,-100.00,WSW,247,3.0,6.0,62,0.00,,,0.00,0.000000,,2013-02-26 02:42:00,
2013-02-25 21:52:00,36.0,24.0,-100.00,WSW,247,3.0,6.0,62,0.00,,,0.00,0.000000,,2013-02-26 02:52:00,
2013-02-25 22:02:00,36.0,24.0,-100.00,WSW,247,3.0,6.0,62,0.00,,,0.00,0.000000,,2013-02-26 03:02:00,
2013-02-25 22:22:00,32.0,29.0,-100.00,ENE,65,4.0,9.0,87,0.01,,,0.01,0.000000,,2013-02-26 03:22:00,
2013-02-25 22:32:00,32.0,29.0,-100.00,ENE,65,4.0,9.0,87,0.01,,,0.01,0.000000,,2013-02-26 03:32:00,
2013-02-25 22:42:00,32.0,29.0,-100.00,ENE,65,4.0,9.0,87,0.01,,,0.01,0.000000,,2013-02-26 03:42:00,
2013-02-25 22:52:00,32.0,29.0,-100.00,ENE,65,4.0,9.0,87,0.01,,,0.01,0.000000,,2013-02-26 03:52:00,
2013-02-25 23:01:00,32.0,29.0,-100.00,ENE,65,4.0,9.0,87,0.01,,,0.01,0.000000,,2013-02-26 04:01:00,
2013-02-25 23:32:00,31.0,29.0,-100.00,ENE,66,3.0,8.0,93,0.01,,,0.02,0.000000,,2013-02-26 04:32:00,
2013-02-25 23:42:00,31.0,29.0,-100.00,ENE,66,3.0,8.0,93,0.01,,,0.02,0.000000,,2013-02-26 04:42:00,
2013-02-25 23:52:00,31.0,29.0,-100.00,ENE,66,3.0,8.0,93,0.01,,,0.02,0.000000,,2013-02-26 04:52:00,